createdAt,value
2018-09-24T00:01:52.921Z,98852.72
2018-09-24T00:04:22.481Z,98860.09
2018-09-24T00:06:52.084Z,98866.67
2018-09-24T00:09:21.350Z,98875.56
2018-09-24T00:11:50.717Z,98871.70
2018-09-24T00:14:20.295Z,98888.75
2018-09-24T00:16:49.615Z,98884.34
2018-09-24T00:19:18.875Z,98899.34
2018-09-24T00:21:48.391Z,98895.97
2018-09-24T00:24:17.727Z,98897.11
2018-09-24T00:26:47.192Z,98911.47
2018-09-24T00:29:16.395Z,98903.88
2018-09-24T00:31:45.898Z,98913.82
2018-09-24T00:34:15.263Z,98915.67
2018-09-24T00:36:44.601Z,98921.24
2018-09-24T00:39:14.001Z,98929.69
2018-09-24T00:41:43.402Z,98933.02
2018-09-24T00:44:13.931Z,98930.27
2018-09-24T00:46:43.231Z,98935.59
2018-09-24T00:49:12.693Z,98938.76
2018-09-24T00:51:42.237Z,98952.72
2018-09-24T00:54:11.433Z,98955.38
2018-09-24T00:56:40.947Z,98961.80
2018-09-24T00:59:10.240Z,98965.93
2018-09-24T01:01:39.621Z,98964.14
2018-09-24T01:04:09.143Z,98972.31
2018-09-24T01:06:38.431Z,98976.91
2018-09-24T01:09:10.575Z,98977.85
2018-09-24T01:11:40.115Z,98983.14
2018-09-24T01:14:09.517Z,98994.33
2018-09-24T01:16:39.323Z,98996.13
2018-09-24T01:19:08.700Z,99001.24
2018-09-24T01:21:38.135Z,99005.35
2018-09-24T01:24:07.943Z,99012.73
2018-09-24T01:26:37.303Z,99015.58
2018-09-24T01:29:06.848Z,99021.16
2018-09-24T01:31:36.353Z,99015.63
2018-09-24T01:34:05.861Z,99012.41
2018-09-24T01:36:35.258Z,99022.07
2018-09-24T01:39:05.644Z,99029.16
2018-09-24T01:41:35.192Z,99032.48
2018-09-24T01:44:04.592Z,99040.06
2018-09-24T01:46:35.118Z,99041.16
2018-09-24T01:49:09.520Z,99041.37
2018-09-24T01:51:39.657Z,99042.22
2018-09-24T01:54:09.063Z,99039.59
2018-09-24T01:56:38.666Z,99046.33
2018-09-24T01:59:10.421Z,99040.00
2018-09-24T02:01:45.230Z,99048.95
2018-09-24T02:04:15.323Z,99052.34
2018-09-24T02:06:44.873Z,99061.75
2018-09-24T02:09:14.158Z,99059.80
2018-09-24T02:11:44.083Z,99066.91
2018-09-24T02:14:13.483Z,99075.78
2018-09-24T02:16:43.097Z,99086.73
2018-09-24T02:19:13.638Z,99086.55
2018-09-24T02:21:43.026Z,99096.89
2018-09-24T02:24:12.600Z,99097.38
2018-09-24T02:26:42.101Z,99105.69
2018-09-24T02:29:12.563Z,99112.81
2018-09-24T02:31:41.831Z,99108.66
2018-09-24T02:34:12.233Z,99122.23
2018-09-24T02:36:41.895Z,99116.55
2018-09-24T02:39:12.241Z,99122.28
2018-09-24T02:41:41.999Z,99132.73
2018-09-24T02:44:11.588Z,99134.48
2018-09-24T02:46:43.595Z,99145.84
2018-09-24T02:49:12.943Z,99150.70
2018-09-24T02:51:42.504Z,99150.96
2018-09-24T02:54:12.111Z,99155.95
2018-09-24T02:56:45.711Z,99159.45
2018-09-24T02:59:15.087Z,99161.73
2018-09-24T03:01:44.924Z,99169.01
2018-09-24T03:04:14.435Z,99160.50
2018-09-24T03:06:43.828Z,99171.98
2018-09-24T03:09:15.489Z,99179.56
2018-09-24T03:11:44.983Z,99173.69
2018-09-24T03:14:14.512Z,99176.94
2018-09-24T03:16:43.996Z,99179.69
2018-09-24T03:19:13.291Z,99183.77
2018-09-24T03:21:42.594Z,99194.52
2018-09-24T03:24:11.890Z,99189.06
2018-09-24T03:26:43.070Z,99193.95
2018-09-24T03:29:22.420Z,99200.70
2018-09-24T03:31:52.389Z,99207.04
2018-09-24T03:34:21.691Z,99208.03
2018-09-24T03:36:51.398Z,99215.33
2018-09-24T03:39:20.719Z,99213.36
2018-09-24T03:41:50.183Z,99218.27
2018-09-24T03:44:19.534Z,99212.83
2018-09-24T03:46:49.002Z,99222.41
2018-09-24T03:49:18.519Z,99221.67
2018-09-24T03:51:47.806Z,99226.34
2018-09-24T03:54:17.310Z,99226.95
2018-09-24T03:56:46.816Z,99238.17
2018-09-24T03:59:16.098Z,99236.19
2018-09-24T04:01:45.458Z,99242.59
2018-09-24T04:04:20.141Z,99239.53
2018-09-24T04:06:54.866Z,99238.66
2018-09-24T04:09:29.602Z,99231.87
2018-09-24T04:12:04.353Z,99239.86
2018-09-24T04:14:38.994Z,99240.30
2018-09-24T04:17:13.878Z,99254.08
2018-09-24T04:19:48.401Z,99258.06
2018-09-24T04:22:23.131Z,99264.75
2018-09-24T04:24:57.956Z,99270.19
2018-09-24T04:27:32.519Z,99270.36
2018-09-24T04:30:07.095Z,99270.73
2018-09-24T04:32:41.724Z,99271.86
2018-09-24T04:35:16.143Z,99272.63
2018-09-24T04:37:50.871Z,99269.06
2018-09-24T04:40:25.600Z,99271.27
2018-09-24T04:43:00.260Z,99280.30
2018-09-24T04:45:35.262Z,99283.38
2018-09-24T04:48:11.031Z,99292.33
2018-09-24T04:50:45.629Z,99300.98
2018-09-24T04:53:20.560Z,99304.39
2018-09-24T04:55:55.321Z,99305.69
2018-09-24T04:58:30.011Z,99301.16
2018-09-24T05:01:04.479Z,99310.70
2018-09-24T05:03:39.264Z,99306.48
2018-09-24T05:06:13.652Z,99307.35
2018-09-24T05:08:48.203Z,99240.35
2018-09-24T05:11:23.136Z,99324.48
2018-09-24T05:13:57.861Z,99331.53
2018-09-24T05:16:32.428Z,99330.31
2018-09-24T05:19:07.322Z,99324.71
2018-09-24T05:21:41.695Z,99337.58
2018-09-24T05:24:16.562Z,99331.11
2018-09-24T05:26:51.392Z,99344.67
2018-09-24T05:32:00.336Z,99350.98
2018-09-24T05:34:35.349Z,99347.15
2018-09-24T05:37:09.667Z,99357.80
2018-09-24T05:39:44.439Z,99360.37
2018-09-24T05:42:20.057Z,99358.80
2018-09-24T05:44:54.778Z,99361.49
2018-09-24T05:47:29.447Z,99370.33
2018-09-24T05:50:03.931Z,99376.89
2018-09-24T05:52:38.797Z,99384.77
2018-09-24T05:55:13.926Z,99392.17
2018-09-24T05:57:48.438Z,99396.25
2018-09-24T06:00:23.155Z,99406.30
2018-09-24T06:02:57.762Z,99412.38
2018-09-24T06:05:32.602Z,99419.04
2018-09-24T06:08:07.024Z,99419.99
2018-09-24T06:10:41.751Z,99426.98
2018-09-24T06:13:16.310Z,99435.78
2018-09-24T06:15:50.890Z,99428.83
2018-09-24T06:18:25.822Z,99429.84
2018-09-24T06:21:00.326Z,99437.69
2018-09-24T06:23:34.890Z,99440.54
2018-09-24T06:26:09.751Z,99452.91
2018-09-24T06:28:44.317Z,99462.03
2018-09-24T06:31:19.044Z,99465.13
2018-09-24T06:33:53.495Z,99471.15
2018-09-24T06:36:27.907Z,99469.02
2018-09-24T06:39:02.504Z,99462.09
2018-09-24T06:41:38.462Z,99462.80
2018-09-24T06:44:13.293Z,99468.86
2018-09-24T06:46:47.926Z,99481.55
2018-09-24T06:49:22.642Z,99485.83
2018-09-24T06:51:57.882Z,99494.05
2018-09-24T06:54:32.470Z,99494.78
2018-09-24T06:57:07.269Z,99497.80
2018-09-24T06:59:41.927Z,99494.53
2018-09-24T07:02:16.547Z,99500.16
2018-09-24T07:04:51.115Z,99507.17
2018-09-24T07:07:25.934Z,99512.81
2018-09-24T07:10:00.565Z,99521.41
2018-09-24T07:12:35.183Z,99522.78
2018-09-24T07:15:09.843Z,99528.59
2018-09-24T07:17:45.559Z,99534.26
2018-09-24T07:20:20.386Z,99540.02
2018-09-24T07:22:55.319Z,99542.52
2018-09-24T07:25:30.203Z,99545.28
2018-09-24T07:28:04.924Z,99557.92
2018-09-24T07:30:39.619Z,99565.27
2018-09-24T07:33:14.403Z,99567.19
2018-09-24T07:35:49.055Z,99577.48
2018-09-24T07:38:23.877Z,99572.89
2018-09-24T07:40:58.604Z,99576.38
2018-09-24T07:43:33.697Z,99583.45
2018-09-24T07:46:08.363Z,99588.11
2018-09-24T07:48:42.941Z,99589.06
2018-09-24T07:51:17.720Z,99594.27
2018-09-24T07:53:52.159Z,99594.09
2018-09-24T07:56:27.070Z,99593.38
2018-09-24T07:59:01.900Z,99599.68
2018-09-24T08:01:36.569Z,99608.27
2018-09-24T08:04:11.352Z,99618.13
2018-09-24T08:06:45.916Z,99609.38
2018-09-24T08:09:20.807Z,99616.37
2018-09-24T08:11:55.444Z,99620.02
2018-09-24T08:14:30.157Z,99622.44
2018-09-24T08:17:05.805Z,99629.89
2018-09-24T08:19:40.400Z,99635.20
2018-09-24T08:22:14.956Z,99655.73
2018-09-24T08:24:49.471Z,99646.73
2018-09-24T08:27:24.030Z,99643.17
2018-09-24T08:29:58.720Z,99640.36
2018-09-24T08:32:33.447Z,99647.70
2018-09-24T08:35:08.071Z,99652.17
2018-09-24T08:37:42.900Z,99652.91
2018-09-24T08:40:17.503Z,99654.23
2018-09-24T08:42:51.951Z,99662.69
2018-09-24T08:45:26.529Z,99659.05
2018-09-24T08:48:01.398Z,99647.75
2018-09-24T08:50:35.919Z,99651.61
2018-09-24T08:53:10.550Z,99650.50
2018-09-24T08:55:45.679Z,99657.72
2018-09-24T08:58:20.406Z,99658.05
2018-09-24T09:00:54.971Z,99655.47
2018-09-24T09:03:29.859Z,99662.80
2018-09-24T09:06:04.376Z,99667.78
2018-09-24T09:08:39.010Z,99667.43
2018-09-24T09:11:13.586Z,99665.22
2018-09-24T09:13:48.460Z,99669.45
2018-09-24T09:16:23.039Z,99663.14
2018-09-24T09:18:57.811Z,99672.03
2018-09-24T09:21:32.228Z,99666.30
2018-09-24T09:24:06.639Z,99678.10
2018-09-24T09:26:41.091Z,99687.20
2018-09-24T09:29:15.776Z,99684.18
2018-09-24T09:31:50.415Z,99689.91
2018-09-24T09:34:24.978Z,99702.03
2018-09-24T09:36:59.410Z,99702.14
2018-09-24T09:39:34.290Z,99710.42
2018-09-24T09:42:09.044Z,99704.85
2018-09-24T09:44:43.660Z,99711.92
2018-09-24T09:47:18.161Z,99714.30
2018-09-24T09:49:52.686Z,99707.91
2018-09-24T09:52:27.514Z,99704.62
2018-09-24T09:55:02.237Z,99709.35
2018-09-24T09:57:37.069Z,99709.62
2018-09-24T10:00:12.152Z,99704.22
2018-09-24T10:02:46.618Z,99708.52
2018-09-24T10:05:21.661Z,99703.16
2018-09-24T10:07:56.489Z,99699.98
2018-09-24T10:10:31.318Z,99703.98
2018-09-24T10:13:06.150Z,99710.41
2018-09-24T10:15:40.728Z,99710.92
2018-09-24T10:18:15.138Z,99713.16
2018-09-24T10:20:49.510Z,99705.04
2018-09-24T10:23:24.233Z,99705.58
2018-09-24T10:25:58.856Z,99716.21
2018-09-24T10:28:33.583Z,99722.00
2018-09-24T10:31:08.209Z,99712.88
2018-09-24T10:33:42.741Z,99717.45
2018-09-24T10:36:17.355Z,99714.81
2018-09-24T10:38:52.083Z,99711.99
2018-09-24T10:41:26.706Z,99708.08
2018-09-24T10:44:01.433Z,99699.98
2018-09-24T10:46:35.938Z,99706.47
2018-09-24T10:49:10.570Z,99706.34
2018-09-24T10:51:45.262Z,99705.47
2018-09-24T10:54:19.924Z,99709.17
2018-09-24T10:56:54.860Z,99711.13
2018-09-24T10:59:29.481Z,99709.91
2018-09-24T11:02:04.124Z,99710.34
2018-09-24T11:04:38.737Z,99709.78
2018-09-24T11:07:13.564Z,99716.79
2018-09-24T11:09:48.119Z,99710.54
2018-09-24T11:12:22.524Z,99706.58
2018-09-24T11:14:57.176Z,99717.17
2018-09-24T11:17:31.801Z,99743.13
2018-09-24T11:20:06.355Z,99757.47
2018-09-24T11:22:40.732Z,99745.62
2018-09-24T11:25:15.393Z,99744.62
2018-09-24T11:27:49.936Z,99732.90
2018-09-24T11:30:24.668Z,99724.98
2018-09-24T11:32:59.495Z,99727.74
2018-09-24T11:35:34.428Z,99730.02
2018-09-24T11:38:09.363Z,99719.42
2018-09-24T11:40:44.020Z,99720.79
2018-09-24T11:43:18.811Z,99719.14
2018-09-24T11:45:53.588Z,99731.07
2018-09-24T11:48:28.161Z,99717.15
2018-09-24T11:51:02.993Z,99718.15
2018-09-24T11:53:37.599Z,99716.67
2018-09-24T11:56:12.356Z,99711.54
2018-09-24T11:58:47.173Z,99713.86
2018-09-24T12:01:21.794Z,99716.64
2018-09-24T12:03:56.372Z,99719.13
2018-09-24T12:06:31.237Z,99721.94
2018-09-24T12:09:05.769Z,99715.31
2018-09-24T12:11:40.497Z,99712.69
2018-09-24T12:14:15.087Z,99704.21
2018-09-24T12:16:49.849Z,99710.09
2018-09-24T12:19:24.369Z,99705.53
2018-09-24T12:21:59.096Z,99704.75
2018-09-24T12:24:33.824Z,99696.95
2018-09-24T12:27:08.444Z,99690.67
2018-09-24T12:29:43.276Z,99684.59
2018-09-24T12:32:17.902Z,99689.38
2018-09-24T12:34:52.522Z,99686.88
2018-09-24T12:37:27.253Z,99697.06
2018-09-24T12:40:01.696Z,99705.16
2018-09-24T12:42:36.098Z,99703.37
2018-09-24T12:45:10.671Z,99703.12
2018-09-24T12:47:45.438Z,99697.63
2018-09-24T12:50:20.187Z,99691.48
2018-09-24T12:52:54.896Z,99697.33
2018-09-24T12:55:29.827Z,99696.14
2018-09-24T12:58:04.254Z,99697.94
2018-09-24T13:00:38.702Z,99692.12
2018-09-24T13:03:13.454Z,99695.28
2018-09-24T13:05:48.324Z,99694.67
2018-09-24T13:08:23.171Z,99684.20
2018-09-24T13:10:57.927Z,99682.73
2018-09-24T13:13:32.505Z,99683.06
2018-09-24T13:16:07.328Z,99676.74
2018-09-24T13:18:42.970Z,99674.25
2018-09-24T13:21:17.804Z,99683.55
2018-09-24T13:23:52.481Z,99676.45
2018-09-24T13:26:27.468Z,99685.03
2018-09-24T13:29:01.881Z,99677.72
2018-09-24T13:31:36.588Z,99687.98
2018-09-24T13:34:11.231Z,99678.71
2018-09-24T13:36:45.969Z,99693.47
2018-09-24T13:39:20.898Z,99679.38
2018-09-24T13:41:55.728Z,99685.30
2018-09-24T13:44:30.335Z,99685.20
2018-09-24T13:47:05.179Z,99683.35
2018-09-24T13:49:39.806Z,99688.70
2018-09-24T13:52:14.476Z,99686.20
2018-09-24T13:54:49.358Z,99668.16
2018-09-24T13:57:23.876Z,99686.88
2018-09-24T13:59:58.508Z,99684.42
2018-09-24T14:02:33.538Z,99690.03
2018-09-24T14:05:08.134Z,99674.64
2018-09-24T14:07:42.806Z,99678.11
2018-09-24T14:10:17.371Z,99677.08
2018-09-24T14:12:52.139Z,99686.55
2018-09-24T14:15:26.864Z,99676.89
2018-09-24T14:18:01.796Z,99679.22
2018-09-24T14:20:36.522Z,99685.77
2018-09-24T14:23:11.250Z,99681.31
2018-09-24T14:25:46.002Z,99686.00
2018-09-24T14:28:21.829Z,99691.99
2018-09-24T14:30:56.662Z,99698.12
2018-09-24T14:33:31.692Z,99690.02
2018-09-24T14:36:06.421Z,99693.18
2018-09-24T14:38:41.146Z,99692.01
2018-09-24T14:41:15.898Z,99685.08
2018-09-24T14:43:50.804Z,99690.28
2018-09-24T14:46:25.531Z,99695.95
2018-09-24T14:49:00.566Z,99705.14
2018-09-24T14:51:34.945Z,99707.61
2018-09-24T14:54:09.600Z,99699.13
2018-09-24T14:56:44.095Z,99702.45
2018-09-24T14:59:18.653Z,99710.19
2018-09-24T15:01:53.176Z,99711.86
2018-09-24T15:04:28.002Z,99699.97
2018-09-24T15:07:02.447Z,99694.17
2018-09-24T15:09:37.052Z,99694.83
2018-09-24T15:12:11.670Z,99702.45
2018-09-24T15:14:46.293Z,99709.89
2018-09-24T15:17:20.923Z,99714.02
2018-09-24T15:19:55.542Z,99727.25
2018-09-24T15:22:30.010Z,99752.83
2018-09-24T15:25:05.165Z,99764.73
2018-09-24T15:27:40.133Z,99772.98
2018-09-24T15:30:15.059Z,99759.23
2018-09-24T15:32:49.505Z,99762.90
2018-09-24T15:35:24.249Z,99771.03
2018-09-24T15:37:59.144Z,99769.10
2018-09-24T15:40:33.701Z,99767.92
2018-09-24T15:43:08.698Z,99767.92
2018-09-24T15:45:43.066Z,99769.55
2018-09-24T15:48:17.680Z,99771.33
2018-09-24T15:50:52.570Z,99771.71
2018-09-24T15:53:27.058Z,99771.99
2018-09-24T15:56:01.719Z,99770.12
2018-09-24T15:58:36.212Z,99779.70
2018-09-24T16:01:10.904Z,99786.09
2018-09-24T16:03:45.499Z,99793.91
2018-09-24T16:06:20.063Z,99806.36
2018-09-24T16:08:54.948Z,99820.27
2018-09-24T16:11:29.462Z,99819.44
2018-09-24T16:14:03.984Z,99822.98
2018-09-24T16:16:38.506Z,99815.14
2018-09-24T16:19:13.112Z,99815.58
2018-09-24T16:21:47.739Z,99813.23
2018-09-24T16:24:22.584Z,99791.64
2018-09-24T16:26:57.006Z,99799.58
2018-09-24T16:29:31.327Z,99811.64
2018-09-24T16:32:06.050Z,99811.54
2018-09-24T16:34:42.682Z,99819.00
2018-09-24T16:37:17.394Z,99824.08
2018-09-24T16:39:52.378Z,99824.53
2018-09-24T16:42:28.136Z,99837.82
2018-09-24T16:45:02.754Z,99844.34
2018-09-24T16:47:37.377Z,99843.86
2018-09-24T16:50:11.914Z,99837.19
2018-09-24T16:52:46.625Z,99844.28
2018-09-24T16:55:21.226Z,99847.52
2018-09-24T16:57:56.234Z,99835.95
2018-09-24T17:00:31.115Z,99832.86
2018-09-24T17:03:05.822Z,99832.88
2018-09-24T17:05:40.567Z,99833.80
2018-09-24T17:08:15.395Z,99830.47
2018-09-24T17:10:51.171Z,99839.08
2018-09-24T17:13:25.797Z,99836.51
2018-09-24T17:16:00.386Z,99837.25
2018-09-24T17:18:35.429Z,99848.80
2018-09-24T17:21:10.261Z,99851.16
2018-09-24T17:23:44.984Z,99866.41
2018-09-24T17:26:19.319Z,99873.27
2018-09-24T17:28:54.029Z,99883.56
2018-09-24T17:31:28.869Z,99883.70
2018-09-24T17:34:03.633Z,99888.15
2018-09-24T17:36:38.207Z,99889.60
2018-09-24T17:39:14.141Z,99890.89
2018-09-24T17:41:49.017Z,99894.51
2018-09-24T17:44:24.844Z,99894.89
2018-09-24T17:46:59.776Z,99906.64
2018-09-24T17:49:34.606Z,99905.52
2018-09-24T17:52:09.459Z,99909.82
2018-09-24T17:54:44.180Z,99919.31
2018-09-24T17:57:18.887Z,99917.86
2018-09-24T17:59:56.032Z,99929.16
2018-09-24T18:02:31.607Z,99926.49
2018-09-24T18:05:06.344Z,99928.95
2018-09-24T18:07:41.335Z,99936.59
2018-09-24T18:10:16.207Z,99934.23
2018-09-24T18:12:51.036Z,99938.61
2018-09-24T18:15:25.774Z,99940.47
2018-09-24T18:18:00.677Z,99938.94
2018-09-24T18:20:35.523Z,99942.88
2018-09-24T18:23:11.069Z,99949.67
2018-09-24T18:25:46.016Z,99946.84
2018-09-24T18:28:20.933Z,99950.45
2018-09-24T18:30:55.659Z,99953.09
2018-09-24T18:33:30.423Z,99956.14
2018-09-24T18:36:05.938Z,99971.73
2018-09-24T18:38:40.790Z,99971.42
2018-09-24T18:41:15.762Z,99972.47
2018-09-24T18:43:50.586Z,99972.69
2018-09-24T18:46:25.559Z,99974.71
2018-09-24T18:49:00.355Z,99981.91
2018-09-24T18:51:35.422Z,99986.30
2018-09-24T18:54:10.349Z,99985.20
2018-09-24T18:56:45.178Z,99983.02
2018-09-24T18:59:20.010Z,99988.29
2018-09-24T19:01:54.845Z,99994.55
2018-09-24T19:04:29.664Z,99998.53
2018-09-24T19:07:04.387Z,100003.73
2018-09-24T19:09:38.983Z,100005.06
2018-09-24T19:12:13.769Z,100009.34
2018-09-24T19:14:48.572Z,100010.61
2018-09-24T19:17:23.248Z,100015.31
2018-09-24T19:19:57.862Z,100019.34
2018-09-24T19:22:32.749Z,100022.73
2018-09-24T19:25:08.302Z,100020.61
2018-09-24T19:27:43.137Z,100026.63
2018-09-24T19:30:17.615Z,100026.08
2018-09-24T19:32:52.176Z,100030.37
2018-09-24T19:35:26.998Z,100032.59
2018-09-24T19:38:01.951Z,100033.55
2018-09-24T19:40:37.066Z,100038.74
2018-09-24T19:43:11.711Z,100041.82
2018-09-24T19:45:46.520Z,100046.81
2018-09-24T19:48:21.068Z,100042.23
2018-09-24T19:50:55.871Z,100052.75
2018-09-24T19:53:30.437Z,100052.62
2018-09-24T19:56:05.011Z,100054.30
2018-09-24T19:58:39.743Z,100056.94
2018-09-24T20:01:14.484Z,100061.28
2018-09-24T20:03:49.298Z,100063.03
2018-09-24T20:06:26.520Z,100068.58
2018-09-24T20:09:01.503Z,100073.18
2018-09-24T20:11:36.655Z,100079.52
2018-09-24T20:14:12.137Z,100072.56
2018-09-24T20:16:47.341Z,100068.98
2018-09-24T20:19:22.167Z,100075.84
2018-09-24T20:21:56.792Z,100075.88
2018-09-24T20:24:31.727Z,100081.31
2018-09-24T20:27:07.480Z,100083.88
2018-09-24T20:29:43.222Z,100081.55
2018-09-24T20:32:18.201Z,100081.79
2018-09-24T20:34:53.092Z,100085.27
2018-09-24T20:37:27.915Z,100089.00
2018-09-24T20:40:02.849Z,100086.66
2018-09-24T20:42:37.879Z,100090.80
2018-09-24T20:45:13.104Z,100100.05
2018-09-24T20:47:48.971Z,100106.52
2018-09-24T20:50:23.594Z,100109.58
2018-09-24T20:52:58.378Z,100110.20
2018-09-24T20:55:33.015Z,100101.36
2018-09-24T20:58:07.878Z,100109.36
2018-09-24T21:00:45.330Z,100104.00
2018-09-24T21:03:20.238Z,100109.36
2018-09-24T21:05:55.641Z,100111.03
2018-09-24T21:08:30.571Z,100115.02
2018-09-24T21:11:05.662Z,100118.53
2018-09-24T21:13:40.443Z,100123.45
2018-09-24T21:16:15.041Z,100130.58
2018-09-24T21:18:49.654Z,100139.30
2018-09-24T21:21:24.230Z,100143.63
2018-09-24T21:23:58.869Z,100144.22
2018-09-24T21:26:33.513Z,100149.11
2018-09-24T21:29:08.181Z,100153.83
2018-09-24T21:31:42.919Z,100155.70
2018-09-24T21:34:17.634Z,100155.70
2018-09-24T21:36:52.358Z,100154.25
2018-09-24T21:39:26.984Z,100150.95
2018-09-24T21:42:01.507Z,100165.44
2018-09-24T21:44:36.184Z,100158.05
2018-09-24T21:47:10.549Z,100169.39
2018-09-24T21:49:45.379Z,100165.92
2018-09-24T21:52:20.100Z,100170.79
2018-09-24T21:54:54.857Z,100170.46
2018-09-24T21:57:29.661Z,100177.35
2018-09-24T22:00:04.285Z,100174.16
2018-09-24T22:02:38.911Z,100181.67
2018-09-24T22:05:13.855Z,100181.67
2018-09-24T22:07:48.399Z,100178.06
2018-09-24T22:10:22.827Z,100185.22
2018-09-24T22:12:57.223Z,100189.53
2018-09-24T22:15:31.721Z,100191.08
2018-09-24T22:18:06.552Z,100195.95
2018-09-24T22:20:41.037Z,100197.91
2018-09-24T22:23:15.598Z,100196.59
2018-09-24T22:25:50.528Z,100196.60
2018-09-24T22:28:24.947Z,100201.95
2018-09-24T22:30:59.879Z,100206.73
2018-09-24T22:33:34.403Z,100207.70
2018-09-24T22:36:09.105Z,100195.75
2018-09-24T22:38:43.594Z,100198.73
2018-09-24T22:41:18.068Z,100198.13
2018-09-24T22:43:52.999Z,100206.62
2018-09-24T22:46:27.505Z,100198.50
2018-09-24T22:49:02.144Z,100203.50
2018-09-24T22:51:36.974Z,100201.61
2018-09-24T22:54:11.515Z,100208.52
2018-09-24T22:56:46.073Z,100208.17
2018-09-24T22:59:20.746Z,100213.16
2018-09-24T23:01:55.367Z,100215.67
2018-09-24T23:04:29.993Z,100221.17
2018-09-24T23:07:04.518Z,100225.45
2018-09-24T23:09:38.799Z,100227.11
2018-09-24T23:12:13.413Z,100226.39
2018-09-24T23:14:47.978Z,100230.34
2018-09-24T23:17:22.501Z,100222.12
2018-09-24T23:19:57.126Z,100224.64
2018-09-24T23:22:31.530Z,100221.52
2018-09-24T23:25:06.068Z,100221.05
2018-09-24T23:27:40.556Z,100219.25
2018-09-24T23:30:15.520Z,100215.03
2018-09-24T23:32:50.044Z,100223.61
2018-09-24T23:35:24.557Z,100223.73
2018-09-24T23:37:59.137Z,100221.75
2018-09-24T23:40:33.810Z,100226.75
2018-09-24T23:43:08.255Z,100222.92
2018-09-24T23:45:42.950Z,100218.86
2018-09-24T23:48:17.683Z,100220.65
2018-09-24T23:50:52.392Z,100217.89
2018-09-24T23:53:26.931Z,100219.44
2018-09-24T23:56:01.914Z,100221.83
2018-09-24T23:58:36.462Z,100222.66
